sensor_id;sensor_type;location;lat;lon;timestamp;P1;durP1;ratioP1;P2;durP2;ratioP2
2762;SDS011;1389;51.490;7.338;2023-04-01T00:00:58;353.70;;;97.00;;
2762;SDS011;1389;51.490;7.338;2023-04-01T00:03:25;350.55;;;97.10;;
2762;SDS011;1389;51.490;7.338;2023-04-01T00:05:53;349.88;;;97.50;;
2762;SDS011;1389;51.490;7.338;2023-04-01T00:08:19;354.40;;;100.38;;
2762;SDS011;1389;51.490;7.338;2023-04-01T00:10:46;355.67;;;100.30;;
2762;SDS011;1389;51.490;7.338;2023-04-01T00:13:12;349.85;;;93.55;;
2762;SDS011;1389;51.490;7.338;2023-04-01T00:15:38;353.33;;;97.90;;
2762;SDS011;1389;51.490;7.338;2023-04-01T00:18:04;353.63;;;98.97;;
2762;SDS011;1389;51.490;7.338;2023-04-01T00:20:30;352.50;;;97.45;;
2762;SDS011;1389;51.490;7.338;2023-04-01T00:22:56;352.40;;;97.40;;
2762;SDS011;1389;51.490;7.338;2023-04-01T00:25:22;352.90;;;96.63;;
2762;SDS011;1389;51.490;7.338;2023-04-01T00:27:49;351.20;;;94.97;;
2762;SDS011;1389;51.490;7.338;2023-04-01T00:30:15;348.92;;;92.45;;
2762;SDS011;1389;51.490;7.338;2023-04-01T00:32:42;351.57;;;95.57;;
2762;SDS011;1389;51.490;7.338;2023-04-01T00:35:08;347.40;;;88.82;;
2762;SDS011;1389;51.490;7.338;2023-04-01T00:37:35;345.30;;;87.50;;
2762;SDS011;1389;51.490;7.338;2023-04-01T00:40:03;351.98;;;89.88;;
2762;SDS011;1389;51.490;7.338;2023-04-01T00:42:31;350.50;;;89.50;;
2762;SDS011;1389;51.490;7.338;2023-04-01T00:44:58;350.23;;;88.47;;
2762;SDS011;1389;51.490;7.338;2023-04-01T00:47:43;347.35;;;85.70;;
2762;SDS011;1389;51.490;7.338;2023-04-01T00:50:10;348.10;;;87.75;;
2762;SDS011;1389;51.490;7.338;2023-04-01T00:52:36;344.38;;;82.55;;
2762;SDS011;1389;51.490;7.338;2023-04-01T00:55:02;348.40;;;87.22;;
2762;SDS011;1389;51.490;7.338;2023-04-01T00:57:32;347.48;;;85.60;;
2762;SDS011;1389;51.490;7.338;2023-04-01T01:00:03;347.73;;;85.57;;
2762;SDS011;1389;51.490;7.338;2023-04-01T01:02:32;351.65;;;88.10;;
2762;SDS011;1389;51.490;7.338;2023-04-01T01:05:00;346.50;;;85.65;;
2762;SDS011;1389;51.490;7.338;2023-04-01T01:07:38;347.98;;;83.22;;
2762;SDS011;1389;51.490;7.338;2023-04-01T01:10:19;345.33;;;83.07;;
2762;SDS011;1389;51.490;7.338;2023-04-01T01:13:53;340.85;;;77.68;;
2762;SDS011;1389;51.490;7.338;2023-04-01T01:23:52;346.90;;;86.90;;
2762;SDS011;1389;51.490;7.338;2023-04-01T01:29:23;341.50;;;78.30;;
2762;SDS011;1389;51.490;7.338;2023-04-01T01:35:04;340.95;;;78.03;;
2762;SDS011;1389;51.490;7.338;2023-04-01T01:37:39;341.48;;;78.40;;
2762;SDS011;1389;51.490;7.338;2023-04-01T01:40:08;339.88;;;78.03;;
2762;SDS011;1389;51.490;7.338;2023-04-01T01:42:40;342.75;;;77.68;;
2762;SDS011;1389;51.490;7.338;2023-04-01T01:45:11;342.45;;;79.00;;
2762;SDS011;1389;51.490;7.338;2023-04-01T01:47:39;341.60;;;77.60;;
2762;SDS011;1389;51.490;7.338;2023-04-01T01:50:07;340.45;;;75.85;;
2762;SDS011;1389;51.490;7.338;2023-04-01T01:52:34;341.42;;;77.68;;
2762;SDS011;1389;51.490;7.338;2023-04-01T01:55:00;343.85;;;77.55;;
2762;SDS011;1389;51.490;7.338;2023-04-01T01:57:31;343.60;;;78.63;;
2762;SDS011;1389;51.490;7.338;2023-04-01T02:00:02;340.90;;;76.93;;
2762;SDS011;1389;51.490;7.338;2023-04-01T02:02:47;341.50;;;75.95;;
2762;SDS011;1389;51.490;7.338;2023-04-01T02:05:18;340.83;;;74.15;;
2762;SDS011;1389;51.490;7.338;2023-04-01T02:07:48;337.02;;;71.22;;
2762;SDS011;1389;51.490;7.338;2023-04-01T02:10:21;337.88;;;72.38;;
2762;SDS011;1389;51.490;7.338;2023-04-01T02:12:50;336.00;;;72.10;;
2762;SDS011;1389;51.490;7.338;2023-04-01T02:15:18;338.25;;;74.50;;
2762;SDS011;1389;51.490;7.338;2023-04-01T02:17:46;337.85;;;74.40;;
2762;SDS011;1389;51.490;7.338;2023-04-01T02:20:15;337.48;;;73.32;;
2762;SDS011;1389;51.490;7.338;2023-04-01T02:22:50;336.47;;;71.87;;
2762;SDS011;1389;51.490;7.338;2023-04-01T02:25:20;335.52;;;72.10;;
2762;SDS011;1389;51.490;7.338;2023-04-01T02:27:50;336.60;;;71.63;;
2762;SDS011;1389;51.490;7.338;2023-04-01T02:30:18;335.40;;;67.00;;
2762;SDS011;1389;51.490;7.338;2023-04-01T02:32:46;335.75;;;69.50;;
2762;SDS011;1389;51.490;7.338;2023-04-01T02:35:15;337.17;;;70.72;;
2762;SDS011;1389;51.490;7.338;2023-04-01T02:37:43;335.90;;;71.28;;
2762;SDS011;1389;51.490;7.338;2023-04-01T02:40:14;338.73;;;72.90;;
2762;SDS011;1389;51.490;7.338;2023-04-01T02:42:41;336.38;;;71.80;;
2762;SDS011;1389;51.490;7.338;2023-04-01T02:45:08;336.13;;;71.50;;
2762;SDS011;1389;51.490;7.338;2023-04-01T02:47:34;336.42;;;69.57;;
2762;SDS011;1389;51.490;7.338;2023-04-01T02:50:00;335.30;;;70.22;;
2762;SDS011;1389;51.490;7.338;2023-04-01T02:52:28;335.75;;;70.28;;
2762;SDS011;1389;51.490;7.338;2023-04-01T02:54:55;337.63;;;71.55;;
2762;SDS011;1389;51.490;7.338;2023-04-01T02:57:22;333.65;;;66.05;;
2762;SDS011;1389;51.490;7.338;2023-04-01T02:59:49;335.10;;;68.75;;
2762;SDS011;1389;51.490;7.338;2023-04-01T03:02:15;335.70;;;68.15;;
2762;SDS011;1389;51.490;7.338;2023-04-01T03:04:41;338.58;;;71.50;;
2762;SDS011;1389;51.490;7.338;2023-04-01T03:07:08;339.60;;;72.10;;
2762;SDS011;1389;51.490;7.338;2023-04-01T03:09:37;335.90;;;71.45;;
2762;SDS011;1389;51.490;7.338;2023-04-01T03:12:04;336.42;;;69.00;;
2762;SDS011;1389;51.490;7.338;2023-04-01T03:14:30;337.00;;;68.80;;
2762;SDS011;1389;51.490;7.338;2023-04-01T03:16:56;334.02;;;68.10;;
2762;SDS011;1389;51.490;7.338;2023-04-01T03:19:22;342.67;;;81.53;;
2762;SDS011;1389;51.490;7.338;2023-04-01T03:21:48;345.80;;;88.55;;
2762;SDS011;1389;51.490;7.338;2023-04-01T03:24:14;343.35;;;83.57;;
2762;SDS011;1389;51.490;7.338;2023-04-01T03:26:40;345.20;;;85.67;;
2762;SDS011;1389;51.490;7.338;2023-04-01T03:29:06;343.20;;;85.90;;
2762;SDS011;1389;51.490;7.338;2023-04-01T03:31:32;348.23;;;95.22;;
2762;SDS011;1389;51.490;7.338;2023-04-01T03:33:59;347.02;;;91.15;;
2762;SDS011;1389;51.490;7.338;2023-04-01T03:36:25;344.65;;;92.03;;
2762;SDS011;1389;51.490;7.338;2023-04-01T03:38:51;344.85;;;88.72;;
2762;SDS011;1389;51.490;7.338;2023-04-01T03:41:17;344.43;;;87.13;;
2762;SDS011;1389;51.490;7.338;2023-04-01T03:43:44;341.55;;;81.25;;
2762;SDS011;1389;51.490;7.338;2023-04-01T03:46:10;346.80;;;84.88;;
2762;SDS011;1389;51.490;7.338;2023-04-01T03:48:37;343.70;;;81.20;;
2762;SDS011;1389;51.490;7.338;2023-04-01T03:51:06;341.42;;;77.07;;
2762;SDS011;1389;51.490;7.338;2023-04-01T03:53:33;340.30;;;75.32;;
2762;SDS011;1389;51.490;7.338;2023-04-01T03:56:02;339.90;;;74.20;;
2762;SDS011;1389;51.490;7.338;2023-04-01T03:58:30;341.10;;;77.00;;
2762;SDS011;1389;51.490;7.338;2023-04-01T04:00:56;340.27;;;77.15;;
2762;SDS011;1389;51.490;7.338;2023-04-01T04:03:22;343.70;;;81.82;;
2762;SDS011;1389;51.490;7.338;2023-04-01T04:05:49;340.27;;;77.53;;
2762;SDS011;1389;51.490;7.338;2023-04-01T04:08:15;342.55;;;78.53;;
2762;SDS011;1389;51.490;7.338;2023-04-01T04:10:41;344.15;;;84.63;;
2762;SDS011;1389;51.490;7.338;2023-04-01T04:13:08;345.02;;;85.97;;
2762;SDS011;1389;51.490;7.338;2023-04-01T04:15:34;341.92;;;82.60;;
2762;SDS011;1389;51.490;7.338;2023-04-01T04:18:00;342.95;;;83.32;;
2762;SDS011;1389;51.490;7.338;2023-04-01T04:20:26;340.77;;;82.22;;
2762;SDS011;1389;51.490;7.338;2023-04-01T04:22:52;345.52;;;85.88;;
2762;SDS011;1389;51.490;7.338;2023-04-01T04:25:18;347.35;;;85.00;;
2762;SDS011;1389;51.490;7.338;2023-04-01T04:27:44;347.63;;;84.93;;
2762;SDS011;1389;51.490;7.338;2023-04-01T04:30:11;346.45;;;88.50;;
2762;SDS011;1389;51.490;7.338;2023-04-01T04:32:37;349.80;;;87.88;;
2762;SDS011;1389;51.490;7.338;2023-04-01T04:35:03;348.85;;;89.57;;
2762;SDS011;1389;51.490;7.338;2023-04-01T04:37:31;348.92;;;89.15;;
2762;SDS011;1389;51.490;7.338;2023-04-01T04:39:57;348.05;;;89.18;;
2762;SDS011;1389;51.490;7.338;2023-04-01T04:42:23;348.50;;;88.80;;
2762;SDS011;1389;51.490;7.338;2023-04-01T04:44:49;348.00;;;87.68;;
2762;SDS011;1389;51.490;7.338;2023-04-01T04:47:15;346.45;;;85.60;;
2762;SDS011;1389;51.490;7.338;2023-04-01T04:49:41;348.90;;;86.97;;
2762;SDS011;1389;51.490;7.338;2023-04-01T04:52:07;351.67;;;93.95;;
2762;SDS011;1389;51.490;7.338;2023-04-01T04:54:34;352.20;;;94.68;;
2762;SDS011;1389;51.490;7.338;2023-04-01T04:57:00;349.13;;;90.10;;
2762;SDS011;1389;51.490;7.338;2023-04-01T04:59:26;354.75;;;99.10;;
2762;SDS011;1389;51.490;7.338;2023-04-01T05:01:52;357.25;;;102.60;;
2762;SDS011;1389;51.490;7.338;2023-04-01T05:04:18;352.88;;;93.88;;
2762;SDS011;1389;51.490;7.338;2023-04-01T05:06:44;353.10;;;99.32;;
2762;SDS011;1389;51.490;7.338;2023-04-01T05:09:10;354.60;;;99.78;;
2762;SDS011;1389;51.490;7.338;2023-04-01T05:11:36;354.55;;;98.55;;
2762;SDS011;1389;51.490;7.338;2023-04-01T05:14:02;351.63;;;93.18;;
2762;SDS011;1389;51.490;7.338;2023-04-01T05:16:28;353.42;;;94.00;;
2762;SDS011;1389;51.490;7.338;2023-04-01T05:18:55;351.90;;;94.13;;
2762;SDS011;1389;51.490;7.338;2023-04-01T05:21:21;352.38;;;97.30;;
2762;SDS011;1389;51.490;7.338;2023-04-01T05:23:47;355.13;;;99.40;;
2762;SDS011;1389;51.490;7.338;2023-04-01T05:26:13;353.77;;;100.32;;
2762;SDS011;1389;51.490;7.338;2023-04-01T05:28:40;353.33;;;97.25;;
2762;SDS011;1389;51.490;7.338;2023-04-01T05:31:06;354.35;;;97.88;;
2762;SDS011;1389;51.490;7.338;2023-04-01T05:33:33;350.13;;;90.60;;
2762;SDS011;1389;51.490;7.338;2023-04-01T05:36:10;350.83;;;89.53;;
2762;SDS011;1389;51.490;7.338;2023-04-01T05:38:40;349.75;;;92.18;;
2762;SDS011;1389;51.490;7.338;2023-04-01T05:41:07;350.52;;;89.40;;
2762;SDS011;1389;51.490;7.338;2023-04-01T05:43:36;347.98;;;87.40;;
2762;SDS011;1389;51.490;7.338;2023-04-01T05:46:03;351.33;;;93.97;;
2762;SDS011;1389;51.490;7.338;2023-04-01T05:48:30;353.52;;;92.25;;
2762;SDS011;1389;51.490;7.338;2023-04-01T05:50:56;353.40;;;93.27;;
2762;SDS011;1389;51.490;7.338;2023-04-01T05:53:22;349.73;;;87.95;;
2762;SDS011;1389;51.490;7.338;2023-04-01T05:55:48;347.88;;;84.90;;
2762;SDS011;1389;51.490;7.338;2023-04-01T05:58:14;353.40;;;88.43;;
2762;SDS011;1389;51.490;7.338;2023-04-01T06:00:40;351.60;;;90.32;;
2762;SDS011;1389;51.490;7.338;2023-04-01T06:03:06;348.20;;;83.07;;
2762;SDS011;1389;51.490;7.338;2023-04-01T06:05:39;347.17;;;82.55;;
2762;SDS011;1389;51.490;7.338;2023-04-01T06:08:16;345.35;;;80.93;;
2762;SDS011;1389;51.490;7.338;2023-04-01T06:10:48;344.42;;;77.35;;
2762;SDS011;1389;51.490;7.338;2023-04-01T06:16:11;347.55;;;82.13;;
2762;SDS011;1389;51.490;7.338;2023-04-01T06:18:58;344.83;;;78.50;;
2762;SDS011;1389;51.490;7.338;2023-04-01T06:29:49;346.50;;;79.78;;
2762;SDS011;1389;51.490;7.338;2023-04-01T06:44:06;347.40;;;81.57;;
2762;SDS011;1389;51.490;7.338;2023-04-01T06:46:59;349.40;;;84.33;;
2762;SDS011;1389;51.490;7.338;2023-04-01T06:54:48;345.15;;;78.28;;
2762;SDS011;1389;51.490;7.338;2023-04-01T06:57:20;346.35;;;77.30;;
2762;SDS011;1389;51.490;7.338;2023-04-01T07:00:00;347.20;;;82.40;;
2762;SDS011;1389;51.490;7.338;2023-04-01T07:02:34;348.87;;;84.57;;
2762;SDS011;1389;51.490;7.338;2023-04-01T07:05:07;349.27;;;83.43;;
2762;SDS011;1389;51.490;7.338;2023-04-01T07:07:47;343.08;;;79.18;;
2762;SDS011;1389;51.490;7.338;2023-04-01T07:10:33;345.45;;;79.75;;
2762;SDS011;1389;51.490;7.338;2023-04-01T07:13:09;350.08;;;86.03;;
2762;SDS011;1389;51.490;7.338;2023-04-01T07:15:43;349.20;;;87.68;;
2762;SDS011;1389;51.490;7.338;2023-04-01T07:18:17;348.33;;;85.53;;
2762;SDS011;1389;51.490;7.338;2023-04-01T07:20:49;349.23;;;86.23;;
2762;SDS011;1389;51.490;7.338;2023-04-01T07:25:51;349.30;;;87.00;;
2762;SDS011;1389;51.490;7.338;2023-04-01T07:28:20;351.85;;;91.00;;
2762;SDS011;1389;51.490;7.338;2023-04-01T07:36:21;350.10;;;87.38;;
2762;SDS011;1389;51.490;7.338;2023-04-01T07:42:09;344.70;;;82.07;;
2762;SDS011;1389;51.490;7.338;2023-04-01T07:50:22;362.35;;;102.30;;
2762;SDS011;1389;51.490;7.338;2023-04-01T07:53:14;353.85;;;94.65;;
2762;SDS011;1389;51.490;7.338;2023-04-01T08:00:59;352.65;;;88.50;;
2762;SDS011;1389;51.490;7.338;2023-04-01T08:03:43;351.80;;;87.28;;
2762;SDS011;1389;51.490;7.338;2023-04-01T08:06:45;354.17;;;89.68;;
2762;SDS011;1389;51.490;7.338;2023-04-01T08:09:29;354.17;;;88.95;;
2762;SDS011;1389;51.490;7.338;2023-04-01T08:12:01;352.17;;;85.57;;
2762;SDS011;1389;51.490;7.338;2023-04-01T08:20:33;351.75;;;88.75;;
2762;SDS011;1389;51.490;7.338;2023-04-01T08:26:04;359.03;;;99.93;;
2762;SDS011;1389;51.490;7.338;2023-04-01T08:31:12;358.60;;;102.55;;
2762;SDS011;1389;51.490;7.338;2023-04-01T08:33:41;353.30;;;93.57;;
2762;SDS011;1389;51.490;7.338;2023-04-01T08:36:20;357.27;;;99.13;;
2762;SDS011;1389;51.490;7.338;2023-04-01T08:39:06;355.50;;;95.43;;
2762;SDS011;1389;51.490;7.338;2023-04-01T08:49:35;352.05;;;87.60;;
2762;SDS011;1389;51.490;7.338;2023-04-01T08:52:07;358.10;;;95.90;;
2762;SDS011;1389;51.490;7.338;2023-04-01T09:00:54;358.05;;;96.68;;
2762;SDS011;1389;51.490;7.338;2023-04-01T09:08:31;350.80;;;88.32;;
2762;SDS011;1389;51.490;7.338;2023-04-01T09:30:48;362.50;;;102.88;;
2762;SDS011;1389;51.490;7.338;2023-04-01T09:33:48;362.08;;;107.90;;
2762;SDS011;1389;51.490;7.338;2023-04-01T09:36:43;363.57;;;113.17;;
2762;SDS011;1389;51.490;7.338;2023-04-01T09:39:35;362.57;;;108.93;;
2762;SDS011;1389;51.490;7.338;2023-04-01T09:42:13;362.00;;;103.88;;
2762;SDS011;1389;51.490;7.338;2023-04-01T09:44:59;369.40;;;111.78;;
2762;SDS011;1389;51.490;7.338;2023-04-01T09:47:54;366.88;;;112.68;;
2762;SDS011;1389;51.490;7.338;2023-04-01T09:50:52;365.40;;;112.80;;
2762;SDS011;1389;51.490;7.338;2023-04-01T09:59:04;368.40;;;118.23;;
2762;SDS011;1389;51.490;7.338;2023-04-01T10:07:56;378.50;;;126.22;;
2762;SDS011;1389;51.490;7.338;2023-04-01T10:13:20;387.35;;;145.88;;
2762;SDS011;1389;51.490;7.338;2023-04-01T10:33:04;377.35;;;126.20;;
2762;SDS011;1389;51.490;7.338;2023-04-01T10:38:33;370.38;;;114.45;;
2762;SDS011;1389;51.490;7.338;2023-04-01T10:41:38;364.70;;;105.57;;
2762;SDS011;1389;51.490;7.338;2023-04-01T10:58:32;363.85;;;102.50;;
2762;SDS011;1389;51.490;7.338;2023-04-01T11:07:07;357.77;;;91.80;;
2762;SDS011;1389;51.490;7.338;2023-04-01T11:12:36;362.15;;;99.88;;
2762;SDS011;1389;51.490;7.338;2023-04-01T11:23:42;368.83;;;112.20;;
2762;SDS011;1389;51.490;7.338;2023-04-01T11:26:32;370.27;;;114.35;;
2762;SDS011;1389;51.490;7.338;2023-04-01T11:32:11;375.00;;;127.97;;
2762;SDS011;1389;51.490;7.338;2023-04-01T11:35:09;386.58;;;141.73;;
2762;SDS011;1389;51.490;7.338;2023-04-01T11:40:44;373.45;;;123.35;;
2762;SDS011;1389;51.490;7.338;2023-04-01T11:54:46;366.40;;;111.13;;
2762;SDS011;1389;51.490;7.338;2023-04-01T11:57:40;371.20;;;120.07;;
2762;SDS011;1389;51.490;7.338;2023-04-01T12:03:01;370.80;;;117.45;;
2762;SDS011;1389;51.490;7.338;2023-04-01T12:05:43;374.92;;;122.47;;
2762;SDS011;1389;51.490;7.338;2023-04-01T12:13:52;369.02;;;115.25;;
2762;SDS011;1389;51.490;7.338;2023-04-01T12:16:25;363.92;;;111.15;;
2762;SDS011;1389;51.490;7.338;2023-04-01T12:19:11;375.52;;;130.70;;
2762;SDS011;1389;51.490;7.338;2023-04-01T12:22:37;380.75;;;134.23;;
2762;SDS011;1389;51.490;7.338;2023-04-01T12:24:53;368.60;;;113.32;;
2762;SDS011;1389;51.490;7.338;2023-04-01T12:33:24;365.85;;;107.05;;
2762;SDS011;1389;51.490;7.338;2023-04-01T12:36:14;366.20;;;107.60;;
2762;SDS011;1389;51.490;7.338;2023-04-01T12:39:05;370.40;;;111.67;;
2762;SDS011;1389;51.490;7.338;2023-04-01T12:44:29;371.20;;;110.40;;
2762;SDS011;1389;51.490;7.338;2023-04-01T12:50:25;369.33;;;110.43;;
2762;SDS011;1389;51.490;7.338;2023-04-01T12:56:09;372.50;;;114.80;;
2762;SDS011;1389;51.490;7.338;2023-04-01T12:59:09;369.70;;;113.85;;
2762;SDS011;1389;51.490;7.338;2023-04-01T13:01:50;370.95;;;113.10;;
2762;SDS011;1389;51.490;7.338;2023-04-01T13:04:35;370.97;;;115.43;;
2762;SDS011;1389;51.490;7.338;2023-04-01T13:09:43;370.40;;;108.28;;
2762;SDS011;1389;51.490;7.338;2023-04-01T13:12:26;370.42;;;109.50;;
2762;SDS011;1389;51.490;7.338;2023-04-01T13:15:22;395.58;;;145.45;;
2762;SDS011;1389;51.490;7.338;2023-04-01T13:18:58;377.30;;;122.97;;
2762;SDS011;1389;51.490;7.338;2023-04-01T13:23:49;375.58;;;122.93;;
2762;SDS011;1389;51.490;7.338;2023-04-01T13:31:42;378.75;;;127.70;;
2762;SDS011;1389;51.490;7.338;2023-04-01T13:34:38;374.17;;;120.60;;
2762;SDS011;1389;51.490;7.338;2023-04-01T13:40:23;390.87;;;140.27;;
2762;SDS011;1389;51.490;7.338;2023-04-01T13:43:10;390.05;;;148.48;;
2762;SDS011;1389;51.490;7.338;2023-04-01T13:51:44;390.15;;;149.73;;
2762;SDS011;1389;51.490;7.338;2023-04-01T13:54:40;390.65;;;146.77;;
2762;SDS011;1389;51.490;7.338;2023-04-01T14:08:10;385.15;;;134.82;;
2762;SDS011;1389;51.490;7.338;2023-04-01T14:14:01;381.42;;;129.18;;
2762;SDS011;1389;51.490;7.338;2023-04-01T14:19:34;376.55;;;125.85;;
2762;SDS011;1389;51.490;7.338;2023-04-01T14:24:52;374.75;;;122.63;;
2762;SDS011;1389;51.490;7.338;2023-04-01T14:30:15;381.35;;;127.22;;
2762;SDS011;1389;51.490;7.338;2023-04-01T14:32:52;381.30;;;129.43;;
2762;SDS011;1389;51.490;7.338;2023-04-01T14:35:38;381.55;;;130.05;;
2762;SDS011;1389;51.490;7.338;2023-04-01T14:49:42;381.60;;;131.30;;
2762;SDS011;1389;51.490;7.338;2023-04-01T14:54:52;384.13;;;131.82;;
2762;SDS011;1389;51.490;7.338;2023-04-01T14:57:27;386.10;;;132.35;;
2762;SDS011;1389;51.490;7.338;2023-04-01T15:05:10;381.23;;;128.00;;
2762;SDS011;1389;51.490;7.338;2023-04-01T15:07:56;388.87;;;140.67;;
2762;SDS011;1389;51.490;7.338;2023-04-01T15:13:51;395.35;;;141.48;;
2762;SDS011;1389;51.490;7.338;2023-04-01T15:16:39;384.55;;;129.35;;
2762;SDS011;1389;51.490;7.338;2023-04-01T15:19:22;386.25;;;133.45;;
2762;SDS011;1389;51.490;7.338;2023-04-01T15:25:16;376.35;;;120.50;;
2762;SDS011;1389;51.490;7.338;2023-04-01T15:36:33;386.53;;;135.87;;
2762;SDS011;1389;51.490;7.338;2023-04-01T15:39:09;376.77;;;121.70;;
2762;SDS011;1389;51.490;7.338;2023-04-01T15:55:27;376.20;;;120.30;;
2762;SDS011;1389;51.490;7.338;2023-04-01T15:58:21;374.23;;;118.10;;
2762;SDS011;1389;51.490;7.338;2023-04-01T16:00:58;379.55;;;127.22;;
2762;SDS011;1389;51.490;7.338;2023-04-01T16:03:54;381.90;;;129.50;;
2762;SDS011;1389;51.490;7.338;2023-04-01T16:11:53;377.27;;;131.93;;
2762;SDS011;1389;51.490;7.338;2023-04-01T16:20:57;385.98;;;136.15;;
2762;SDS011;1389;51.490;7.338;2023-04-01T16:23:58;383.43;;;132.40;;
2762;SDS011;1389;51.490;7.338;2023-04-01T16:26:29;388.30;;;138.25;;
2762;SDS011;1389;51.490;7.338;2023-04-01T16:37:21;395.23;;;150.30;;
2762;SDS011;1389;51.490;7.338;2023-04-01T16:42:51;394.38;;;150.50;;
2762;SDS011;1389;51.490;7.338;2023-04-01T16:45:23;392.08;;;141.52;;
2762;SDS011;1389;51.490;7.338;2023-04-01T16:47:56;388.25;;;136.57;;
2762;SDS011;1389;51.490;7.338;2023-04-01T16:50:39;386.75;;;137.00;;
2762;SDS011;1389;51.490;7.338;2023-04-01T16:58:27;391.40;;;137.60;;
2762;SDS011;1389;51.490;7.338;2023-04-01T17:01:08;388.95;;;133.20;;
2762;SDS011;1389;51.490;7.338;2023-04-01T17:03:40;396.55;;;151.15;;
2762;SDS011;1389;51.490;7.338;2023-04-01T17:06:19;385.00;;;132.13;;
2762;SDS011;1389;51.490;7.338;2023-04-01T17:08:56;389.40;;;138.65;;
2762;SDS011;1389;51.490;7.338;2023-04-01T17:11:54;385.58;;;134.88;;
2762;SDS011;1389;51.490;7.338;2023-04-01T17:17:29;382.75;;;130.15;;
2762;SDS011;1389;51.490;7.338;2023-04-01T17:23:00;394.02;;;146.98;;
2762;SDS011;1389;51.490;7.338;2023-04-01T17:28:36;392.17;;;141.68;;
2762;SDS011;1389;51.490;7.338;2023-04-01T17:31:11;395.25;;;148.43;;
2762;SDS011;1389;51.490;7.338;2023-04-01T17:41:42;396.17;;;147.15;;
2762;SDS011;1389;51.490;7.338;2023-04-01T17:44:34;390.63;;;143.80;;
2762;SDS011;1389;51.490;7.338;2023-04-01T17:47:12;390.83;;;143.87;;
2762;SDS011;1389;51.490;7.338;2023-04-01T17:55:31;389.45;;;141.00;;
2762;SDS011;1389;51.490;7.338;2023-04-01T17:58:17;387.45;;;138.32;;
2762;SDS011;1389;51.490;7.338;2023-04-01T18:03:14;393.17;;;147.33;;
2762;SDS011;1389;51.490;7.338;2023-04-01T18:08:58;390.47;;;139.50;;
2762;SDS011;1389;51.490;7.338;2023-04-01T18:11:34;386.25;;;135.35;;
2762;SDS011;1389;51.490;7.338;2023-04-01T18:17:06;392.98;;;144.15;;
2762;SDS011;1389;51.490;7.338;2023-04-01T18:22:44;382.48;;;131.90;;
2762;SDS011;1389;51.490;7.338;2023-04-01T18:28:21;391.75;;;147.45;;
2762;SDS011;1389;51.490;7.338;2023-04-01T18:31:08;393.27;;;152.48;;
2762;SDS011;1389;51.490;7.338;2023-04-01T18:33:45;386.40;;;141.10;;
2762;SDS011;1389;51.490;7.338;2023-04-01T18:44:50;389.92;;;145.07;;
2762;SDS011;1389;51.490;7.338;2023-04-01T18:50:56;393.48;;;149.45;;
2762;SDS011;1389;51.490;7.338;2023-04-01T18:56:30;389.00;;;141.55;;
2762;SDS011;1389;51.490;7.338;2023-04-01T19:01:39;383.97;;;134.17;;
2762;SDS011;1389;51.490;7.338;2023-04-01T19:04:47;389.30;;;140.38;;
2762;SDS011;1389;51.490;7.338;2023-04-01T19:07:29;386.20;;;135.50;;
2762;SDS011;1389;51.490;7.338;2023-04-01T19:10:23;382.55;;;130.68;;
2762;SDS011;1389;51.490;7.338;2023-04-01T19:18:21;386.42;;;135.52;;
2762;SDS011;1389;51.490;7.338;2023-04-01T19:21:01;415.52;;;186.25;;
2762;SDS011;1389;51.490;7.338;2023-04-01T19:29:36;397.90;;;148.80;;
2762;SDS011;1389;51.490;7.338;2023-04-01T19:32:39;395.38;;;148.27;;
2762;SDS011;1389;51.490;7.338;2023-04-01T19:38:03;403.48;;;162.05;;
2762;SDS011;1389;51.490;7.338;2023-04-01T19:40:34;391.45;;;147.45;;
2762;SDS011;1389;51.490;7.338;2023-04-01T19:46:20;392.88;;;142.43;;
2762;SDS011;1389;51.490;7.338;2023-04-01T19:51:54;387.80;;;141.45;;
2762;SDS011;1389;51.490;7.338;2023-04-01T19:54:50;393.38;;;149.77;;
2762;SDS011;1389;51.490;7.338;2023-04-01T19:57:42;392.70;;;146.35;;
2762;SDS011;1389;51.490;7.338;2023-04-01T20:00:23;393.23;;;149.88;;
2762;SDS011;1389;51.490;7.338;2023-04-01T20:03:32;392.73;;;150.70;;
2762;SDS011;1389;51.490;7.338;2023-04-01T20:09:00;396.92;;;154.63;;
2762;SDS011;1389;51.490;7.338;2023-04-01T20:14:40;393.00;;;148.80;;
2762;SDS011;1389;51.490;7.338;2023-04-01T20:17:17;391.63;;;148.30;;
2762;SDS011;1389;51.490;7.338;2023-04-01T20:25:16;398.10;;;155.70;;
2762;SDS011;1389;51.490;7.338;2023-04-01T20:27:58;390.35;;;147.30;;
2762;SDS011;1389;51.490;7.338;2023-04-01T20:30:52;392.98;;;149.23;;
2762;SDS011;1389;51.490;7.338;2023-04-01T20:36:09;390.65;;;149.65;;
2762;SDS011;1389;51.490;7.338;2023-04-01T20:41:48;390.27;;;145.07;;
2762;SDS011;1389;51.490;7.338;2023-04-01T20:49:53;389.65;;;144.85;;
2762;SDS011;1389;51.490;7.338;2023-04-01T20:53:05;390.70;;;146.82;;
2762;SDS011;1389;51.490;7.338;2023-04-01T20:58:16;390.27;;;142.53;;
2762;SDS011;1389;51.490;7.338;2023-04-01T21:01:00;387.67;;;141.55;;
2762;SDS011;1389;51.490;7.338;2023-04-01T21:15:21;387.08;;;139.30;;
2762;SDS011;1389;51.490;7.338;2023-04-01T21:20:52;394.45;;;149.20;;
2762;SDS011;1389;51.490;7.338;2023-04-01T21:32:05;384.15;;;135.07;;
2762;SDS011;1389;51.490;7.338;2023-04-01T21:34:55;381.55;;;133.85;;
2762;SDS011;1389;51.490;7.338;2023-04-01T22:23:08;368.55;;;110.25;;
2762;SDS011;1389;51.490;7.338;2023-04-01T22:25:50;366.83;;;106.68;;
2762;SDS011;1389;51.490;7.338;2023-04-01T22:31:23;366.83;;;109.60;;
2762;SDS011;1389;51.490;7.338;2023-04-01T22:34:12;368.75;;;111.95;;
2762;SDS011;1389;51.490;7.338;2023-04-01T22:50:07;365.25;;;110.85;;
2762;SDS011;1389;51.490;7.338;2023-04-01T22:52:42;363.35;;;107.68;;
2762;SDS011;1389;51.490;7.338;2023-04-01T22:55:16;361.50;;;105.32;;
2762;SDS011;1389;51.490;7.338;2023-04-01T23:00:35;362.75;;;101.72;;
2762;SDS011;1389;51.490;7.338;2023-04-01T23:03:17;363.52;;;105.55;;
2762;SDS011;1389;51.490;7.338;2023-04-01T23:05:52;365.02;;;106.85;;
2762;SDS011;1389;51.490;7.338;2023-04-01T23:14:00;360.73;;;103.55;;
2762;SDS011;1389;51.490;7.338;2023-04-01T23:16:45;360.90;;;102.15;;
2762;SDS011;1389;51.490;7.338;2023-04-01T23:19:46;360.55;;;103.65;;
2762;SDS011;1389;51.490;7.338;2023-04-01T23:22:43;358.65;;;95.78;;
2762;SDS011;1389;51.490;7.338;2023-04-01T23:28:38;354.80;;;90.78;;
2762;SDS011;1389;51.490;7.338;2023-04-01T23:34:01;358.27;;;98.47;;
2762;SDS011;1389;51.490;7.338;2023-04-01T23:36:30;360.15;;;97.28;;
2762;SDS011;1389;51.490;7.338;2023-04-01T23:39:04;359.08;;;100.80;;
2762;SDS011;1389;51.490;7.338;2023-04-01T23:41:35;355.85;;;92.55;;
2762;SDS011;1389;51.490;7.338;2023-04-01T23:44:02;358.33;;;94.68;;
2762;SDS011;1389;51.490;7.338;2023-04-01T23:46:33;355.20;;;92.25;;
2762;SDS011;1389;51.490;7.338;2023-04-01T23:49:01;352.90;;;88.73;;
2762;SDS011;1389;51.490;7.338;2023-04-01T23:51:35;357.40;;;95.55;;
2762;SDS011;1389;51.490;7.338;2023-04-01T23:54:10;353.27;;;88.43;;
2762;SDS011;1389;51.490;7.338;2023-04-01T23:56:45;351.43;;;86.30;;
2762;SDS011;1389;51.490;7.338;2023-04-01T23:59:14;352.55;;;87.82;;
